HAAB/ADD METAR and TAF weather

Enter ICAO airport designator
Station Type Date Time Source
HAAB METAR 2018/01/21 12:00 UTC NOAA

HAAB 211200Z 11010KT 9999 SCT025 23/04 Q1024


Station Type Date Time Source
HAAB Decoded METAR 2018/01/21 12:00 UTC NOAA

Addis Ababa, Ethiopia (HAAB) 08-59N 038-48E 2324M
Jan 21, 2018 - 07:00 AM EST / 2018.01.21 1200 UTC
Wind: from the ESE (110 degrees) at 12 MPH (10 KT):0
Visibility: greater than 7 mile(s):0
Sky conditions: partly cloudy
Temperature: 73 F (23 C)
Dew Point: 39 F (4 C)
Relative Humidity: 28%
Pressure (altimeter): 30.24 in. Hg (1024 hPa)
ob: HAAB 211200Z 11010KT 9999 SCT025 23/04 Q1024
cycle: 12

Station Type Date Time Source
HAAB TAF 2018/01/21 06:36 UTC NOAA

TAF TAF HAAB 210400Z 2106/2212 09008KT 9999 FEW030 FEW090


Example: see airport list